sensor_id;sensor_type;location;lat;lon;timestamp;P1;durP1;ratioP1;P2;durP2;ratioP2
39356;SDS011;25077;50.302;18.996;2022-12-29T00:01:20;7.70;;;3.73;;
39356;SDS011;25077;50.302;18.996;2022-12-29T00:04:22;8.23;;;3.90;;
39356;SDS011;25077;50.302;18.996;2022-12-29T00:07:25;7.23;;;3.63;;
39356;SDS011;25077;50.302;18.996;2022-12-29T00:14:54;8.83;;;4.17;;
39356;SDS011;25077;50.302;18.996;2022-12-29T00:18:14;8.27;;;4.13;;
39356;SDS011;25077;50.302;18.996;2022-12-29T00:21:17;9.90;;;4.80;;
39356;SDS011;25077;50.302;18.996;2022-12-29T00:24:39;10.63;;;4.80;;
39356;SDS011;25077;50.302;18.996;2022-12-29T00:27:59;10.50;;;5.53;;
39356;SDS011;25077;50.302;18.996;2022-12-29T00:31:18;16.57;;;6.23;;
39356;SDS011;25077;50.302;18.996;2022-12-29T00:34:46;14.97;;;5.63;;
39356;SDS011;25077;50.302;18.996;2022-12-29T00:43:39;12.20;;;5.60;;
39356;SDS011;25077;50.302;18.996;2022-12-29T00:46:59;13.50;;;6.20;;
39356;SDS011;25077;50.302;18.996;2022-12-29T00:50:03;15.37;;;7.10;;
39356;SDS011;25077;50.302;18.996;2022-12-29T00:53:06;16.03;;;6.67;;
39356;SDS011;25077;50.302;18.996;2022-12-29T00:58:01;15.23;;;6.37;;
39356;SDS011;25077;50.302;18.996;2022-12-29T01:01:05;12.77;;;6.17;;
39356;SDS011;25077;50.302;18.996;2022-12-29T01:04:09;14.27;;;6.47;;
39356;SDS011;25077;50.302;18.996;2022-12-29T01:07:11;11.27;;;6.00;;
39356;SDS011;25077;50.302;18.996;2022-12-29T01:10:13;13.77;;;5.60;;
39356;SDS011;25077;50.302;18.996;2022-12-29T01:13:15;11.10;;;5.73;;
39356;SDS011;25077;50.302;18.996;2022-12-29T01:16:19;15.00;;;5.23;;
39356;SDS011;25077;50.302;18.996;2022-12-29T01:19:21;12.63;;;5.77;;
39356;SDS011;25077;50.302;18.996;2022-12-29T01:22:23;12.10;;;5.63;;
39356;SDS011;25077;50.302;18.996;2022-12-29T01:25:25;13.30;;;5.17;;
39356;SDS011;25077;50.302;18.996;2022-12-29T01:28:27;13.20;;;5.83;;
39356;SDS011;25077;50.302;18.996;2022-12-29T01:31:31;11.47;;;6.13;;
39356;SDS011;25077;50.302;18.996;2022-12-29T01:34:33;10.53;;;5.53;;
39356;SDS011;25077;50.302;18.996;2022-12-29T01:37:37;12.47;;;5.97;;
39356;SDS011;25077;50.302;18.996;2022-12-29T01:45:08;13.33;;;6.30;;
39356;SDS011;25077;50.302;18.996;2022-12-29T01:48:12;16.27;;;6.27;;
39356;SDS011;25077;50.302;18.996;2022-12-29T01:51:16;12.90;;;5.77;;
39356;SDS011;25077;50.302;18.996;2022-12-29T01:54:20;14.33;;;5.70;;
39356;SDS011;25077;50.302;18.996;2022-12-29T01:57:24;13.37;;;6.57;;
39356;SDS011;25077;50.302;18.996;2022-12-29T02:00:29;14.70;;;6.10;;
39356;SDS011;25077;50.302;18.996;2022-12-29T02:03:33;11.10;;;5.40;;
39356;SDS011;25077;50.302;18.996;2022-12-29T02:06:38;10.73;;;5.03;;
39356;SDS011;25077;50.302;18.996;2022-12-29T02:14:12;10.63;;;5.43;;
39356;SDS011;25077;50.302;18.996;2022-12-29T02:17:16;15.33;;;5.70;;
39356;SDS011;25077;50.302;18.996;2022-12-29T02:33:02;9.73;;;4.70;;
39356;SDS011;25077;50.302;18.996;2022-12-29T02:36:12;9.90;;;4.90;;
39356;SDS011;25077;50.302;18.996;2022-12-29T02:39:23;9.03;;;5.13;;
39356;SDS011;25077;50.302;18.996;2022-12-29T02:42:35;10.40;;;5.30;;
39356;SDS011;25077;50.302;18.996;2022-12-29T02:45:45;11.60;;;5.23;;
39356;SDS011;25077;50.302;18.996;2022-12-29T02:48:56;9.10;;;5.00;;
39356;SDS011;25077;50.302;18.996;2022-12-29T02:52:07;9.93;;;4.90;;
39356;SDS011;25077;50.302;18.996;2022-12-29T02:59:42;9.03;;;4.77;;
39356;SDS011;25077;50.302;18.996;2022-12-29T03:02:50;8.63;;;4.73;;
39356;SDS011;25077;50.302;18.996;2022-12-29T03:06:12;9.50;;;4.63;;
39356;SDS011;25077;50.302;18.996;2022-12-29T03:09:36;10.10;;;4.83;;
39356;SDS011;25077;50.302;18.996;2022-12-29T03:12:46;9.57;;;4.60;;
39356;SDS011;25077;50.302;18.996;2022-12-29T03:16:12;10.20;;;4.93;;
39356;SDS011;25077;50.302;18.996;2022-12-29T03:19:23;8.43;;;4.63;;
39356;SDS011;25077;50.302;18.996;2022-12-29T03:22:34;9.57;;;4.77;;
39356;SDS011;25077;50.302;18.996;2022-12-29T03:30:14;8.10;;;4.50;;
39356;SDS011;25077;50.302;18.996;2022-12-29T03:33:18;8.20;;;4.63;;
39356;SDS011;25077;50.302;18.996;2022-12-29T03:36:26;11.10;;;4.83;;
39356;SDS011;25077;50.302;18.996;2022-12-29T03:39:33;8.77;;;4.37;;
39356;SDS011;25077;50.302;18.996;2022-12-29T03:42:36;7.43;;;4.17;;
39356;SDS011;25077;50.302;18.996;2022-12-29T03:45:39;9.63;;;4.10;;
39356;SDS011;25077;50.302;18.996;2022-12-29T03:48:42;7.10;;;4.17;;
39356;SDS011;25077;50.302;18.996;2022-12-29T03:51:44;6.37;;;4.17;;
39356;SDS011;25077;50.302;18.996;2022-12-29T03:59:15;8.57;;;4.23;;
39356;SDS011;25077;50.302;18.996;2022-12-29T04:02:19;6.33;;;4.17;;
39356;SDS011;25077;50.302;18.996;2022-12-29T04:05:21;6.90;;;4.07;;
39356;SDS011;25077;50.302;18.996;2022-12-29T04:08:26;8.20;;;4.43;;
39356;SDS011;25077;50.302;18.996;2022-12-29T04:15:58;5.33;;;3.17;;
39356;SDS011;25077;50.302;18.996;2022-12-29T04:19:01;5.80;;;3.50;;
39356;SDS011;25077;50.302;18.996;2022-12-29T04:22:04;6.47;;;3.70;;
39356;SDS011;25077;50.302;18.996;2022-12-29T04:25:07;8.00;;;4.10;;
39356;SDS011;25077;50.302;18.996;2022-12-29T04:28:11;7.27;;;4.00;;
39356;SDS011;25077;50.302;18.996;2022-12-29T04:31:15;10.83;;;4.17;;
39356;SDS011;25077;50.302;18.996;2022-12-29T04:34:19;5.83;;;3.70;;
39356;SDS011;25077;50.302;18.996;2022-12-29T04:37:22;7.20;;;4.37;;
39356;SDS011;25077;50.302;18.996;2022-12-29T04:44:55;10.00;;;4.30;;
39356;SDS011;25077;50.302;18.996;2022-12-29T04:48:12;7.53;;;3.90;;
39356;SDS011;25077;50.302;18.996;2022-12-29T04:51:27;8.43;;;4.63;;
39356;SDS011;25077;50.302;18.996;2022-12-29T04:54:30;7.90;;;4.20;;
39356;SDS011;25077;50.302;18.996;2022-12-29T04:59:00;7.17;;;3.97;;
39356;SDS011;25077;50.302;18.996;2022-12-29T05:02:03;7.47;;;4.50;;
39356;SDS011;25077;50.302;18.996;2022-12-29T05:05:08;11.13;;;4.60;;
39356;SDS011;25077;50.302;18.996;2022-12-29T05:08:15;8.70;;;4.47;;
39356;SDS011;25077;50.302;18.996;2022-12-29T05:11:17;6.33;;;3.63;;
39356;SDS011;25077;50.302;18.996;2022-12-29T05:14:22;8.83;;;4.60;;
39356;SDS011;25077;50.302;18.996;2022-12-29T05:17:24;7.30;;;4.20;;
39356;SDS011;25077;50.302;18.996;2022-12-29T05:20:28;7.17;;;4.53;;
39356;SDS011;25077;50.302;18.996;2022-12-29T05:23:31;7.53;;;4.57;;
39356;SDS011;25077;50.302;18.996;2022-12-29T05:31:23;7.10;;;4.27;;
39356;SDS011;25077;50.302;18.996;2022-12-29T05:34:25;11.90;;;4.90;;
39356;SDS011;25077;50.302;18.996;2022-12-29T05:37:28;8.17;;;4.67;;
39356;SDS011;25077;50.302;18.996;2022-12-29T05:40:31;9.80;;;4.70;;
39356;SDS011;25077;50.302;18.996;2022-12-29T05:43:36;7.87;;;4.03;;
39356;SDS011;25077;50.302;18.996;2022-12-29T05:47:14;10.43;;;4.13;;
39356;SDS011;25077;50.302;18.996;2022-12-29T05:50:46;7.67;;;4.43;;
39356;SDS011;25077;50.302;18.996;2022-12-29T05:53:52;8.87;;;4.20;;
39356;SDS011;25077;50.302;18.996;2022-12-29T06:00:53;7.87;;;4.20;;
39356;SDS011;25077;50.302;18.996;2022-12-29T06:03:56;10.10;;;4.50;;
39356;SDS011;25077;50.302;18.996;2022-12-29T06:06:58;6.47;;;3.97;;
39356;SDS011;25077;50.302;18.996;2022-12-29T06:10:11;7.20;;;4.10;;
39356;SDS011;25077;50.302;18.996;2022-12-29T06:13:20;6.77;;;3.83;;
39356;SDS011;25077;50.302;18.996;2022-12-29T06:16:24;8.80;;;3.80;;
39356;SDS011;25077;50.302;18.996;2022-12-29T06:19:29;7.53;;;3.83;;
39356;SDS011;25077;50.302;18.996;2022-12-29T06:22:32;6.03;;;3.40;;
39356;SDS011;25077;50.302;18.996;2022-12-29T06:30:04;7.37;;;3.83;;
39356;SDS011;25077;50.302;18.996;2022-12-29T06:33:07;6.27;;;3.80;;
39356;SDS011;25077;50.302;18.996;2022-12-29T06:36:09;11.97;;;4.23;;
39356;SDS011;25077;50.302;18.996;2022-12-29T06:39:11;8.67;;;4.13;;
39356;SDS011;25077;50.302;18.996;2022-12-29T06:46:59;7.23;;;4.00;;
39356;SDS011;25077;50.302;18.996;2022-12-29T06:50:02;8.60;;;3.87;;
39356;SDS011;25077;50.302;18.996;2022-12-29T06:53:04;7.17;;;3.90;;
39356;SDS011;25077;50.302;18.996;2022-12-29T06:56:06;8.13;;;3.53;;
39356;SDS011;25077;50.302;18.996;2022-12-29T06:59:09;7.20;;;4.03;;
39356;SDS011;25077;50.302;18.996;2022-12-29T07:02:13;10.73;;;4.03;;
39356;SDS011;25077;50.302;18.996;2022-12-29T07:05:17;8.20;;;3.97;;
39356;SDS011;25077;50.302;18.996;2022-12-29T07:08:19;8.33;;;4.03;;
39356;SDS011;25077;50.302;18.996;2022-12-29T07:15:49;8.73;;;4.77;;
39356;SDS011;25077;50.302;18.996;2022-12-29T07:18:52;8.27;;;4.20;;
39356;SDS011;25077;50.302;18.996;2022-12-29T07:21:54;8.33;;;4.67;;
39356;SDS011;25077;50.302;18.996;2022-12-29T07:24:57;9.87;;;4.93;;
39356;SDS011;25077;50.302;18.996;2022-12-29T07:32:27;13.17;;;5.70;;
39356;SDS011;25077;50.302;18.996;2022-12-29T07:35:31;15.57;;;7.00;;
39356;SDS011;25077;50.302;18.996;2022-12-29T07:38:33;11.93;;;5.40;;
39356;SDS011;25077;50.302;18.996;2022-12-29T07:41:35;10.73;;;5.00;;
39356;SDS011;25077;50.302;18.996;2022-12-29T07:44:37;14.87;;;4.70;;
39356;SDS011;25077;50.302;18.996;2022-12-29T07:47:50;12.73;;;4.03;;
39356;SDS011;25077;50.302;18.996;2022-12-29T07:50:53;7.63;;;4.37;;
39356;SDS011;25077;50.302;18.996;2022-12-29T07:53:55;10.13;;;4.90;;
39356;SDS011;25077;50.302;18.996;2022-12-29T08:01:26;11.50;;;5.43;;
39356;SDS011;25077;50.302;18.996;2022-12-29T08:04:29;11.50;;;5.70;;
39356;SDS011;25077;50.302;18.996;2022-12-29T08:07:32;13.93;;;5.87;;
39356;SDS011;25077;50.302;18.996;2022-12-29T08:10:34;14.27;;;5.90;;
39356;SDS011;25077;50.302;18.996;2022-12-29T08:18:04;10.43;;;5.33;;
39356;SDS011;25077;50.302;18.996;2022-12-29T08:21:06;13.60;;;6.37;;
39356;SDS011;25077;50.302;18.996;2022-12-29T08:24:10;9.10;;;4.87;;
39356;SDS011;25077;50.302;18.996;2022-12-29T08:27:12;9.70;;;5.63;;
39356;SDS011;25077;50.302;18.996;2022-12-29T08:30:14;12.63;;;5.27;;
39356;SDS011;25077;50.302;18.996;2022-12-29T08:33:16;10.30;;;5.67;;
39356;SDS011;25077;50.302;18.996;2022-12-29T08:36:19;10.40;;;4.70;;
39356;SDS011;25077;50.302;18.996;2022-12-29T08:39:22;11.20;;;5.63;;
39356;SDS011;25077;50.302;18.996;2022-12-29T08:46:51;11.90;;;5.00;;
39356;SDS011;25077;50.302;18.996;2022-12-29T08:49:53;11.20;;;5.27;;
39356;SDS011;25077;50.302;18.996;2022-12-29T08:52:55;10.00;;;5.23;;
39356;SDS011;25077;50.302;18.996;2022-12-29T08:55:59;9.80;;;4.73;;
39356;SDS011;25077;50.302;18.996;2022-12-29T08:59:02;9.80;;;5.63;;
39356;SDS011;25077;50.302;18.996;2022-12-29T09:02:05;9.23;;;5.07;;
39356;SDS011;25077;50.302;18.996;2022-12-29T09:05:11;12.90;;;5.80;;
39356;SDS011;25077;50.302;18.996;2022-12-29T09:08:13;9.97;;;5.33;;
39356;SDS011;25077;50.302;18.996;2022-12-29T09:15:45;11.47;;;5.83;;
39356;SDS011;25077;50.302;18.996;2022-12-29T09:18:47;10.40;;;5.10;;
39356;SDS011;25077;50.302;18.996;2022-12-29T09:21:49;14.27;;;5.93;;
39356;SDS011;25077;50.302;18.996;2022-12-29T09:24:51;12.13;;;5.70;;
39356;SDS011;25077;50.302;18.996;2022-12-29T09:32:22;15.57;;;6.30;;
39356;SDS011;25077;50.302;18.996;2022-12-29T09:35:25;12.03;;;5.50;;
39356;SDS011;25077;50.302;18.996;2022-12-29T09:38:27;11.83;;;5.80;;
39356;SDS011;25077;50.302;18.996;2022-12-29T09:41:31;11.60;;;6.37;;
39356;SDS011;25077;50.302;18.996;2022-12-29T09:44:45;11.93;;;6.33;;
39356;SDS011;25077;50.302;18.996;2022-12-29T09:47:54;14.47;;;6.70;;
39356;SDS011;25077;50.302;18.996;2022-12-29T09:50:57;12.57;;;5.80;;
39356;SDS011;25077;50.302;18.996;2022-12-29T09:54:04;14.20;;;6.50;;
39356;SDS011;25077;50.302;18.996;2022-12-29T10:01:51;12.77;;;6.40;;
39356;SDS011;25077;50.302;18.996;2022-12-29T10:05:01;13.50;;;6.23;;
39356;SDS011;25077;50.302;18.996;2022-12-29T10:08:06;14.93;;;7.07;;
39356;SDS011;25077;50.302;18.996;2022-12-29T10:11:29;14.17;;;7.77;;
39356;SDS011;25077;50.302;18.996;2022-12-29T10:14:47;17.07;;;8.80;;
39356;SDS011;25077;50.302;18.996;2022-12-29T10:18:01;15.33;;;8.23;;
39356;SDS011;25077;50.302;18.996;2022-12-29T10:21:14;19.63;;;7.47;;
39356;SDS011;25077;50.302;18.996;2022-12-29T10:24:24;17.83;;;7.93;;
39356;SDS011;25077;50.302;18.996;2022-12-29T10:31:58;20.10;;;9.13;;
39356;SDS011;25077;50.302;18.996;2022-12-29T10:35:03;17.23;;;8.97;;
39356;SDS011;25077;50.302;18.996;2022-12-29T10:38:15;20.60;;;9.17;;
39356;SDS011;25077;50.302;18.996;2022-12-29T10:41:25;17.50;;;7.53;;
39356;SDS011;25077;50.302;18.996;2022-12-29T10:44:32;16.43;;;8.73;;
39356;SDS011;25077;50.302;18.996;2022-12-29T10:47:37;16.60;;;8.20;;
39356;SDS011;25077;50.302;18.996;2022-12-29T10:50:44;14.00;;;7.80;;
39356;SDS011;25077;50.302;18.996;2022-12-29T10:53:48;15.77;;;8.23;;
39356;SDS011;25077;50.302;18.996;2022-12-29T11:01:20;16.03;;;8.20;;
39356;SDS011;25077;50.302;18.996;2022-12-29T11:04:35;15.03;;;8.10;;
39356;SDS011;25077;50.302;18.996;2022-12-29T11:07:47;14.87;;;8.10;;
39356;SDS011;25077;50.302;18.996;2022-12-29T11:10:58;14.43;;;7.80;;
39356;SDS011;25077;50.302;18.996;2022-12-29T11:18:31;14.27;;;7.10;;
39356;SDS011;25077;50.302;18.996;2022-12-29T11:21:36;13.37;;;6.30;;
39356;SDS011;25077;50.302;18.996;2022-12-29T11:24:43;15.87;;;6.90;;
39356;SDS011;25077;50.302;18.996;2022-12-29T11:27:55;13.70;;;7.03;;
39356;SDS011;25077;50.302;18.996;2022-12-29T11:31:00;14.17;;;7.67;;
39356;SDS011;25077;50.302;18.996;2022-12-29T11:34:05;12.80;;;6.87;;
39356;SDS011;25077;50.302;18.996;2022-12-29T11:37:11;16.90;;;8.00;;
39356;SDS011;25077;50.302;18.996;2022-12-29T11:40:16;15.53;;;7.87;;
39356;SDS011;25077;50.302;18.996;2022-12-29T11:47:49;18.33;;;8.40;;
39356;SDS011;25077;50.302;18.996;2022-12-29T11:50:54;19.60;;;9.40;;
39356;SDS011;25077;50.302;18.996;2022-12-29T11:53:59;23.30;;;9.80;;
39356;SDS011;25077;50.302;18.996;2022-12-29T11:57:09;16.37;;;7.83;;
39356;SDS011;25077;50.302;18.996;2022-12-29T12:00:14;30.33;;;9.77;;
39356;SDS011;25077;50.302;18.996;2022-12-29T12:03:20;19.87;;;9.73;;
39356;SDS011;25077;50.302;18.996;2022-12-29T12:06:25;22.80;;;9.37;;
39356;SDS011;25077;50.302;18.996;2022-12-29T12:09:31;19.90;;;8.80;;
39356;SDS011;25077;50.302;18.996;2022-12-29T12:17:26;18.70;;;8.37;;
39356;SDS011;25077;50.302;18.996;2022-12-29T12:20:46;14.90;;;8.00;;
39356;SDS011;25077;50.302;18.996;2022-12-29T12:24:10;14.97;;;6.97;;
39356;SDS011;25077;50.302;18.996;2022-12-29T12:31:26;12.50;;;7.20;;
39356;SDS011;25077;50.302;18.996;2022-12-29T12:34:39;15.03;;;6.87;;
39356;SDS011;25077;50.302;18.996;2022-12-29T12:37:59;10.70;;;6.13;;
39356;SDS011;25077;50.302;18.996;2022-12-29T12:41:16;14.37;;;6.77;;
39356;SDS011;25077;50.302;18.996;2022-12-29T12:48:55;12.07;;;6.60;;
39356;SDS011;25077;50.302;18.996;2022-12-29T12:52:12;14.43;;;6.80;;
39356;SDS011;25077;50.302;18.996;2022-12-29T12:55:29;16.00;;;6.77;;
39356;SDS011;25077;50.302;18.996;2022-12-29T12:58:41;12.20;;;6.00;;
39356;SDS011;25077;50.302;18.996;2022-12-29T13:01:53;10.03;;;5.27;;
39356;SDS011;25077;50.302;18.996;2022-12-29T13:05:09;13.63;;;5.33;;
39356;SDS011;25077;50.302;18.996;2022-12-29T13:08:29;10.73;;;5.90;;
39356;SDS011;25077;50.302;18.996;2022-12-29T13:11:50;10.23;;;6.00;;
39356;SDS011;25077;50.302;18.996;2022-12-29T13:19:29;19.13;;;6.63;;
39356;SDS011;25077;50.302;18.996;2022-12-29T13:22:37;11.80;;;6.13;;
39356;SDS011;25077;50.302;18.996;2022-12-29T13:25:44;11.97;;;6.57;;
39356;SDS011;25077;50.302;18.996;2022-12-29T13:28:55;10.67;;;5.63;;
39356;SDS011;25077;50.302;18.996;2022-12-29T13:32:04;11.90;;;6.70;;
39356;SDS011;25077;50.302;18.996;2022-12-29T13:35:35;11.77;;;6.40;;
39356;SDS011;25077;50.302;18.996;2022-12-29T13:38:55;12.50;;;6.50;;
39356;SDS011;25077;50.302;18.996;2022-12-29T13:42:05;11.03;;;6.53;;
39356;SDS011;25077;50.302;18.996;2022-12-29T13:49:37;13.13;;;6.90;;
39356;SDS011;25077;50.302;18.996;2022-12-29T13:52:43;14.23;;;6.73;;
39356;SDS011;25077;50.302;18.996;2022-12-29T13:55:51;13.53;;;7.57;;
39356;SDS011;25077;50.302;18.996;2022-12-29T13:58:57;14.20;;;7.47;;
39356;SDS011;25077;50.302;18.996;2022-12-29T14:02:08;13.93;;;6.97;;
39356;SDS011;25077;50.302;18.996;2022-12-29T14:05:30;15.60;;;7.17;;
39356;SDS011;25077;50.302;18.996;2022-12-29T14:08:33;15.73;;;8.23;;
39356;SDS011;25077;50.302;18.996;2022-12-29T14:11:38;16.53;;;7.50;;
39356;SDS011;25077;50.302;18.996;2022-12-29T14:19:11;18.30;;;8.83;;
39356;SDS011;25077;50.302;18.996;2022-12-29T14:22:23;14.57;;;8.07;;
39356;SDS011;25077;50.302;18.996;2022-12-29T14:33:00;17.93;;;7.57;;
39356;SDS011;25077;50.302;18.996;2022-12-29T14:36:19;15.37;;;8.07;;
39356;SDS011;25077;50.302;18.996;2022-12-29T14:42:44;14.17;;;8.00;;
39356;SDS011;25077;50.302;18.996;2022-12-29T14:50:15;19.53;;;9.20;;
39356;SDS011;25077;50.302;18.996;2022-12-29T14:56:45;19.50;;;8.97;;
39356;SDS011;25077;50.302;18.996;2022-12-29T14:59:52;17.00;;;8.57;;
39356;SDS011;25077;50.302;18.996;2022-12-29T15:03:01;19.37;;;9.60;;
39356;SDS011;25077;50.302;18.996;2022-12-29T15:06:06;16.77;;;8.37;;
39356;SDS011;25077;50.302;18.996;2022-12-29T15:09:14;22.57;;;9.70;;
39356;SDS011;25077;50.302;18.996;2022-12-29T15:12:30;19.40;;;9.33;;
39356;SDS011;25077;50.302;18.996;2022-12-29T15:20:14;18.93;;;9.03;;
39356;SDS011;25077;50.302;18.996;2022-12-29T15:23:22;15.03;;;7.73;;
39356;SDS011;25077;50.302;18.996;2022-12-29T15:26:35;17.73;;;9.03;;
39356;SDS011;25077;50.302;18.996;2022-12-29T15:29:40;17.17;;;8.07;;
39356;SDS011;25077;50.302;18.996;2022-12-29T15:32:44;13.20;;;7.13;;
39356;SDS011;25077;50.302;18.996;2022-12-29T15:35:49;18.23;;;8.10;;
39356;SDS011;25077;50.302;18.996;2022-12-29T15:38:51;13.37;;;7.87;;
39356;SDS011;25077;50.302;18.996;2022-12-29T15:41:55;15.67;;;10.17;;
39356;SDS011;25077;50.302;18.996;2022-12-29T15:49:30;15.23;;;7.33;;
39356;SDS011;25077;50.302;18.996;2022-12-29T15:52:33;11.97;;;6.63;;
39356;SDS011;25077;50.302;18.996;2022-12-29T15:55:35;13.43;;;6.90;;
39356;SDS011;25077;50.302;18.996;2022-12-29T15:58:40;10.57;;;6.77;;
39356;SDS011;25077;50.302;18.996;2022-12-29T16:01:45;12.63;;;7.20;;
39356;SDS011;25077;50.302;18.996;2022-12-29T16:04:48;15.10;;;7.20;;
39356;SDS011;25077;50.302;18.996;2022-12-29T16:07:52;13.97;;;7.40;;
39356;SDS011;25077;50.302;18.996;2022-12-29T16:10:56;13.73;;;7.43;;
39356;SDS011;25077;50.302;18.996;2022-12-29T16:18:26;10.70;;;7.10;;
39356;SDS011;25077;50.302;18.996;2022-12-29T16:21:33;15.37;;;7.50;;
39356;SDS011;25077;50.302;18.996;2022-12-29T16:24:37;13.33;;;7.60;;
39356;SDS011;25077;50.302;18.996;2022-12-29T16:27:41;14.40;;;8.00;;
39356;SDS011;25077;50.302;18.996;2022-12-29T16:35:13;16.53;;;8.13;;
39356;SDS011;25077;50.302;18.996;2022-12-29T16:38:21;17.00;;;8.03;;
39356;SDS011;25077;50.302;18.996;2022-12-29T16:41:30;22.50;;;9.33;;
39356;SDS011;25077;50.302;18.996;2022-12-29T16:44:33;16.80;;;9.00;;
39356;SDS011;25077;50.302;18.996;2022-12-29T16:47:35;19.77;;;9.47;;
39356;SDS011;25077;50.302;18.996;2022-12-29T16:50:37;19.43;;;9.30;;
39356;SDS011;25077;50.302;18.996;2022-12-29T16:53:47;18.87;;;10.90;;
39356;SDS011;25077;50.302;18.996;2022-12-29T16:56:51;19.73;;;9.70;;
39356;SDS011;25077;50.302;18.996;2022-12-29T17:04:22;22.23;;;10.57;;
39356;SDS011;25077;50.302;18.996;2022-12-29T17:07:24;24.47;;;10.90;;
39356;SDS011;25077;50.302;18.996;2022-12-29T17:10:29;21.07;;;10.77;;
39356;SDS011;25077;50.302;18.996;2022-12-29T17:13:45;21.27;;;10.77;;
39356;SDS011;25077;50.302;18.996;2022-12-29T17:16:47;23.50;;;11.60;;
39356;SDS011;25077;50.302;18.996;2022-12-29T17:19:50;24.00;;;11.97;;
39356;SDS011;25077;50.302;18.996;2022-12-29T17:22:54;22.03;;;10.63;;
39356;SDS011;25077;50.302;18.996;2022-12-29T17:25:57;21.93;;;11.60;;
39356;SDS011;25077;50.302;18.996;2022-12-29T17:33:26;20.40;;;11.00;;
39356;SDS011;25077;50.302;18.996;2022-12-29T17:36:31;21.80;;;11.63;;
39356;SDS011;25077;50.302;18.996;2022-12-29T17:39:33;23.10;;;11.17;;
39356;SDS011;25077;50.302;18.996;2022-12-29T17:42:39;23.77;;;12.53;;
39356;SDS011;25077;50.302;18.996;2022-12-29T17:50:12;23.40;;;11.57;;
39356;SDS011;25077;50.302;18.996;2022-12-29T17:53:16;26.03;;;11.63;;
39356;SDS011;25077;50.302;18.996;2022-12-29T17:56:22;25.30;;;12.27;;
39356;SDS011;25077;50.302;18.996;2022-12-29T17:59:25;21.60;;;10.87;;
39356;SDS011;25077;50.302;18.996;2022-12-29T18:02:28;23.27;;;11.20;;
39356;SDS011;25077;50.302;18.996;2022-12-29T18:05:31;24.90;;;11.63;;
39356;SDS011;25077;50.302;18.996;2022-12-29T18:08:34;20.60;;;10.93;;
39356;SDS011;25077;50.302;18.996;2022-12-29T18:11:38;20.93;;;11.57;;
39356;SDS011;25077;50.302;18.996;2022-12-29T18:19:09;24.80;;;12.40;;
39356;SDS011;25077;50.302;18.996;2022-12-29T18:22:11;21.77;;;11.33;;
39356;SDS011;25077;50.302;18.996;2022-12-29T18:25:21;20.57;;;11.00;;
39356;SDS011;25077;50.302;18.996;2022-12-29T18:28:27;22.03;;;10.90;;
39356;SDS011;25077;50.302;18.996;2022-12-29T18:35:58;25.73;;;12.10;;
39356;SDS011;25077;50.302;18.996;2022-12-29T18:39:02;26.60;;;12.83;;
39356;SDS011;25077;50.302;18.996;2022-12-29T18:42:04;26.67;;;13.10;;
39356;SDS011;25077;50.302;18.996;2022-12-29T18:45:14;26.63;;;13.63;;
39356;SDS011;25077;50.302;18.996;2022-12-29T18:48:17;27.03;;;13.77;;
39356;SDS011;25077;50.302;18.996;2022-12-29T18:51:22;25.77;;;14.03;;
39356;SDS011;25077;50.302;18.996;2022-12-29T18:54:26;26.93;;;13.27;;
39356;SDS011;25077;50.302;18.996;2022-12-29T18:57:29;26.47;;;13.70;;
39356;SDS011;25077;50.302;18.996;2022-12-29T19:05:00;24.87;;;13.27;;
39356;SDS011;25077;50.302;18.996;2022-12-29T19:08:03;25.57;;;12.93;;
39356;SDS011;25077;50.302;18.996;2022-12-29T19:11:06;21.77;;;11.40;;
39356;SDS011;25077;50.302;18.996;2022-12-29T19:14:12;23.83;;;12.27;;
39356;SDS011;25077;50.302;18.996;2022-12-29T19:21:43;26.47;;;12.13;;
39356;SDS011;25077;50.302;18.996;2022-12-29T19:24:47;28.13;;;12.33;;
39356;SDS011;25077;50.302;18.996;2022-12-29T19:27:49;23.07;;;12.23;;
39356;SDS011;25077;50.302;18.996;2022-12-29T19:30:54;25.63;;;12.80;;
39356;SDS011;25077;50.302;18.996;2022-12-29T19:33:59;24.83;;;11.87;;
39356;SDS011;25077;50.302;18.996;2022-12-29T19:37:02;25.60;;;12.57;;
39356;SDS011;25077;50.302;18.996;2022-12-29T19:40:06;25.17;;;11.90;;
39356;SDS011;25077;50.302;18.996;2022-12-29T19:43:10;21.90;;;10.57;;
39356;SDS011;25077;50.302;18.996;2022-12-29T19:50:41;17.30;;;9.57;;
39356;SDS011;25077;50.302;18.996;2022-12-29T19:53:44;19.03;;;10.07;;
39356;SDS011;25077;50.302;18.996;2022-12-29T19:56:48;14.63;;;8.70;;
39356;SDS011;25077;50.302;18.996;2022-12-29T19:59:50;17.03;;;8.27;;
39356;SDS011;25077;50.302;18.996;2022-12-29T20:04:28;18.30;;;8.90;;
39356;SDS011;25077;50.302;18.996;2022-12-29T20:07:31;14.77;;;8.23;;
39356;SDS011;25077;50.302;18.996;2022-12-29T20:10:33;20.90;;;8.50;;
39356;SDS011;25077;50.302;18.996;2022-12-29T20:13:37;11.93;;;7.63;;
39356;SDS011;25077;50.302;18.996;2022-12-29T20:16:39;13.73;;;7.93;;
39356;SDS011;25077;50.302;18.996;2022-12-29T20:19:42;13.47;;;7.63;;
39356;SDS011;25077;50.302;18.996;2022-12-29T20:22:45;13.80;;;7.37;;
39356;SDS011;25077;50.302;18.996;2022-12-29T20:25:52;11.93;;;7.10;;
39356;SDS011;25077;50.302;18.996;2022-12-29T20:28:57;13.37;;;7.83;;
39356;SDS011;25077;50.302;18.996;2022-12-29T20:36:27;15.80;;;7.43;;
39356;SDS011;25077;50.302;18.996;2022-12-29T20:39:30;12.90;;;7.73;;
39356;SDS011;25077;50.302;18.996;2022-12-29T20:42:33;14.67;;;7.77;;
39356;SDS011;25077;50.302;18.996;2022-12-29T20:45:36;13.63;;;7.57;;
39356;SDS011;25077;50.302;18.996;2022-12-29T20:48:38;13.13;;;7.20;;
39356;SDS011;25077;50.302;18.996;2022-12-29T20:51:41;15.00;;;7.10;;
39356;SDS011;25077;50.302;18.996;2022-12-29T20:54:44;11.47;;;6.93;;
39356;SDS011;25077;50.302;18.996;2022-12-29T20:57:46;14.83;;;7.80;;
39356;SDS011;25077;50.302;18.996;2022-12-29T21:05:17;11.57;;;7.47;;
39356;SDS011;25077;50.302;18.996;2022-12-29T21:08:20;13.83;;;8.37;;
39356;SDS011;25077;50.302;18.996;2022-12-29T21:11:22;13.77;;;8.23;;
39356;SDS011;25077;50.302;18.996;2022-12-29T21:14:24;17.23;;;8.23;;
39356;SDS011;25077;50.302;18.996;2022-12-29T21:21:56;14.03;;;7.63;;
39356;SDS011;25077;50.302;18.996;2022-12-29T21:24:58;16.47;;;7.43;;
39356;SDS011;25077;50.302;18.996;2022-12-29T21:28:00;15.63;;;8.23;;
39356;SDS011;25077;50.302;18.996;2022-12-29T21:31:05;12.83;;;7.80;;
39356;SDS011;25077;50.302;18.996;2022-12-29T21:34:08;15.43;;;8.23;;
39356;SDS011;25077;50.302;18.996;2022-12-29T21:37:12;16.03;;;8.50;;
39356;SDS011;25077;50.302;18.996;2022-12-29T21:40:14;17.07;;;8.53;;
39356;SDS011;25077;50.302;18.996;2022-12-29T21:43:17;15.63;;;8.57;;
39356;SDS011;25077;50.302;18.996;2022-12-29T21:50:48;15.37;;;8.23;;
39356;SDS011;25077;50.302;18.996;2022-12-29T21:54:10;13.73;;;7.97;;
39356;SDS011;25077;50.302;18.996;2022-12-29T21:57:30;15.17;;;8.20;;
39356;SDS011;25077;50.302;18.996;2022-12-29T22:00:53;19.17;;;8.77;;
39356;SDS011;25077;50.302;18.996;2022-12-29T22:04:12;15.50;;;8.40;;
39356;SDS011;25077;50.302;18.996;2022-12-29T22:07:33;13.37;;;7.43;;
39356;SDS011;25077;50.302;18.996;2022-12-29T22:10:54;15.30;;;7.53;;
39356;SDS011;25077;50.302;18.996;2022-12-29T22:14:14;12.20;;;7.00;;
39356;SDS011;25077;50.302;18.996;2022-12-29T22:21:44;12.77;;;7.20;;
39356;SDS011;25077;50.302;18.996;2022-12-29T22:24:46;12.83;;;8.00;;